createdAt,value
2018-08-24T00:01:18.615Z,4.73
2018-08-24T00:03:46.487Z,5.50
2018-08-24T00:06:14.322Z,5.43
2018-08-24T00:08:42.163Z,5.07
2018-08-24T00:11:10.100Z,4.73
2018-08-24T00:13:37.938Z,4.40
2018-08-24T00:16:05.908Z,4.93
2018-08-24T00:18:33.765Z,7.00
2018-08-24T00:21:01.599Z,4.40
2018-08-24T00:23:29.483Z,4.63
2018-08-24T00:25:57.324Z,4.30
2018-08-24T00:28:25.152Z,5.83
2018-08-24T00:30:52.983Z,4.13
2018-08-24T00:33:20.815Z,4.07
2018-08-24T00:35:48.707Z,6.57
2018-08-24T00:38:16.663Z,4.33
2018-08-24T00:40:44.507Z,4.53
2018-08-24T00:43:12.335Z,5.53
2018-08-24T00:45:40.391Z,3.83
2018-08-24T00:48:08.239Z,6.93
2018-08-24T00:50:36.059Z,5.43
2018-08-24T00:53:03.929Z,5.70
2018-08-24T00:55:31.819Z,4.30
2018-08-24T00:57:59.650Z,3.67
2018-08-24T01:00:32.699Z,3.73
2018-08-24T01:03:00.563Z,4.40
2018-08-24T01:05:28.419Z,4.77
2018-08-24T01:08:01.339Z,5.97
2018-08-24T01:10:29.228Z,3.47
2018-08-24T01:12:57.828Z,4.07
2018-08-24T01:15:25.779Z,3.67
2018-08-24T01:17:59.009Z,4.10
2018-08-24T01:20:31.199Z,4.53
2018-08-24T01:22:59.029Z,3.77
2018-08-24T01:25:26.857Z,4.70
2018-08-24T01:27:54.741Z,3.70
2018-08-24T01:30:22.586Z,4.00
2018-08-24T01:32:50.420Z,4.60
2018-08-24T01:35:18.299Z,4.17
2018-08-24T01:37:46.327Z,3.37
2018-08-24T01:40:14.620Z,5.47
2018-08-24T01:42:43.249Z,3.43
2018-08-24T01:45:11.097Z,5.50
2018-08-24T01:47:38.961Z,4.00
2018-08-24T01:50:06.795Z,4.67
2018-08-24T01:52:34.631Z,2.80
2018-08-24T01:55:02.494Z,6.07
2018-08-24T01:57:31.111Z,4.97
2018-08-24T01:59:59.823Z,3.30
2018-08-24T02:02:28.383Z,3.70
2018-08-24T02:04:56.196Z,5.23
2018-08-24T02:07:24.044Z,2.97
2018-08-24T02:09:51.885Z,3.20
2018-08-24T02:12:24.992Z,3.80
2018-08-24T02:14:53.527Z,2.90
2018-08-24T02:17:26.474Z,4.77
2018-08-24T02:19:59.547Z,6.60
2018-08-24T02:22:27.412Z,4.17
2018-08-24T02:24:55.238Z,4.87
2018-08-24T02:27:23.063Z,7.70
2018-08-24T02:29:55.073Z,4.17
2018-08-24T02:32:23.329Z,5.73
2018-08-24T02:34:51.162Z,3.53
2018-08-24T02:37:18.986Z,3.33
2018-08-24T02:39:46.839Z,5.37
2018-08-24T02:42:14.692Z,7.40
2018-08-24T02:44:42.507Z,3.87
2018-08-24T02:47:13.995Z,4.17
2018-08-24T02:49:42.681Z,2.87
2018-08-24T02:52:10.920Z,4.53
2018-08-24T02:54:39.402Z,6.33
2018-08-24T02:57:08.015Z,2.73
2018-08-24T02:59:36.651Z,4.47
2018-08-24T03:02:05.296Z,2.93
2018-08-24T03:04:34.286Z,4.23
2018-08-24T03:07:02.769Z,3.87
2018-08-24T03:09:31.195Z,2.83
2018-08-24T03:11:59.636Z,3.70
2018-08-24T03:14:27.463Z,2.80
2018-08-24T03:17:00.531Z,4.03
2018-08-24T03:19:28.381Z,2.60
2018-08-24T03:21:56.211Z,2.57
2018-08-24T03:24:24.100Z,2.50
2018-08-24T03:26:51.928Z,4.47
2018-08-24T03:29:19.810Z,2.47
2018-08-24T03:31:47.676Z,5.43
2018-08-24T03:34:15.502Z,4.97
2018-08-24T03:36:44.084Z,2.90
2018-08-24T03:39:11.956Z,3.23
2018-08-24T03:41:39.851Z,3.20
2018-08-24T03:44:07.708Z,2.40
2018-08-24T03:46:35.578Z,2.40
2018-08-24T03:49:03.476Z,3.17
2018-08-24T03:51:31.337Z,2.27
2018-08-24T03:53:59.187Z,2.93
2018-08-24T03:56:27.089Z,4.00
2018-08-24T03:58:54.935Z,2.70
2018-08-24T04:01:22.767Z,6.77
2018-08-24T04:03:51.427Z,2.87
2018-08-24T04:06:19.282Z,5.10
2018-08-24T04:08:47.672Z,6.40
2018-08-24T04:11:15.497Z,5.33
2018-08-24T04:13:43.332Z,2.20
2018-08-24T04:16:11.164Z,2.97
2018-08-24T04:18:39.930Z,4.33
2018-08-24T04:21:07.786Z,4.13
2018-08-24T04:23:35.648Z,3.47
2018-08-24T04:28:47.199Z,6.03
2018-08-24T04:31:15.019Z,9.03
2018-08-24T04:33:42.867Z,2.13
2018-08-24T04:36:10.694Z,4.13
2018-08-24T04:38:38.524Z,4.33
2018-08-24T04:41:06.393Z,4.37
2018-08-24T04:43:34.199Z,3.67
2018-08-24T04:46:02.044Z,2.47
2018-08-24T04:48:29.916Z,2.37
2018-08-24T04:50:57.763Z,1.87
2018-08-24T04:53:25.580Z,3.07
2018-08-24T04:55:53.412Z,2.23
2018-08-24T04:58:21.361Z,3.17
2018-08-24T05:00:49.190Z,3.70
2018-08-24T05:03:16.999Z,1.87
2018-08-24T05:05:44.906Z,4.30
2018-08-24T05:08:12.998Z,2.70
2018-08-24T05:10:40.839Z,8.73
2018-08-24T05:13:09.264Z,2.23
2018-08-24T05:15:37.098Z,2.77
2018-08-24T05:18:04.929Z,2.03
2018-08-24T05:20:32.767Z,2.20
2018-08-24T05:23:00.615Z,3.10
2018-08-24T05:25:28.442Z,4.60
2018-08-24T05:27:56.276Z,2.27
2018-08-24T05:30:24.177Z,3.57
2018-08-24T05:32:52.007Z,3.83
2018-08-24T05:35:19.851Z,3.07
2018-08-24T05:37:47.671Z,5.93
2018-08-24T05:40:15.496Z,5.57
2018-08-24T05:42:43.425Z,3.97
2018-08-24T05:45:11.899Z,1.80
2018-08-24T05:47:40.587Z,3.43
2018-08-24T05:50:08.454Z,2.20
2018-08-24T05:52:36.279Z,2.10
2018-08-24T05:55:04.125Z,2.50
2018-08-24T05:57:31.956Z,6.17
2018-08-24T05:59:59.843Z,2.40
2018-08-24T06:02:27.731Z,3.07
2018-08-24T06:04:55.956Z,7.57
2018-08-24T06:07:23.778Z,1.60
2018-08-24T06:09:51.595Z,2.00
2018-08-24T06:12:19.411Z,1.90
2018-08-24T06:14:47.324Z,5.30
2018-08-24T06:17:20.826Z,2.80
2018-08-24T06:19:48.783Z,4.43
2018-08-24T06:22:16.617Z,2.93
2018-08-24T06:24:44.792Z,2.53
2018-08-24T06:27:12.638Z,3.83
2018-08-24T06:29:40.455Z,2.80
2018-08-24T06:32:08.396Z,1.70
2018-08-24T06:34:36.239Z,2.23
2018-08-24T06:37:04.141Z,5.47
2018-08-24T06:39:31.949Z,4.67
2018-08-24T06:41:59.875Z,3.20
2018-08-24T06:44:27.640Z,3.27
2018-08-24T06:46:55.482Z,2.77
2018-08-24T06:49:23.447Z,1.80
2018-08-24T06:51:51.285Z,2.57
2018-08-24T06:54:19.112Z,5.27
2018-08-24T06:56:46.938Z,2.60
2018-08-24T06:59:14.760Z,5.83
2018-08-24T07:01:42.587Z,4.03
2018-08-24T07:04:10.435Z,2.07
2018-08-24T07:06:38.245Z,1.87
2018-08-24T07:09:06.813Z,3.30
2018-08-24T07:11:34.653Z,1.80
2018-08-24T07:14:02.479Z,2.93
2018-08-24T07:16:30.325Z,4.57
2018-08-24T07:18:58.187Z,2.97
2018-08-24T07:21:26.506Z,2.60
2018-08-24T07:23:54.343Z,2.47
2018-08-24T07:26:22.212Z,1.93
2018-08-24T07:28:50.060Z,2.23
2018-08-24T07:31:17.934Z,2.70
2018-08-24T07:33:45.828Z,2.00
2018-08-24T07:36:13.654Z,1.90
2018-08-24T07:38:41.507Z,2.23
2018-08-24T07:41:09.324Z,2.17
2018-08-24T07:43:37.187Z,2.57
2018-08-24T07:46:05.032Z,1.60
2018-08-24T07:48:32.860Z,1.60
2018-08-24T07:51:00.718Z,1.63
2018-08-24T07:53:28.744Z,1.77
2018-08-24T07:55:56.715Z,2.33
2018-08-24T07:58:24.608Z,1.90
2018-08-24T08:00:52.452Z,1.50
2018-08-24T08:03:20.448Z,1.90
2018-08-24T08:05:48.286Z,3.17
2018-08-24T08:08:16.174Z,3.73
2018-08-24T08:10:44.015Z,4.20
2018-08-24T08:13:12.492Z,3.47
2018-08-24T08:15:40.764Z,2.17
2018-08-24T08:18:08.702Z,3.27
2018-08-24T08:20:36.540Z,4.17
2018-08-24T08:23:04.411Z,2.40
2018-08-24T08:25:32.337Z,4.43
2018-08-24T08:28:00.192Z,2.97
2018-08-24T08:30:28.045Z,3.47
2018-08-24T08:32:55.868Z,2.70
2018-08-24T08:35:23.693Z,1.97
2018-08-24T08:37:51.511Z,3.73
2018-08-24T08:40:19.365Z,3.87
2018-08-24T08:42:47.186Z,1.83
2018-08-24T08:45:15.045Z,3.10
2018-08-24T08:47:42.894Z,3.93
2018-08-24T08:50:10.905Z,2.13
2018-08-24T08:52:38.759Z,4.83
2018-08-24T08:55:06.661Z,3.10
2018-08-24T08:57:34.534Z,2.30
2018-08-24T09:00:02.391Z,2.20
2018-08-24T09:02:30.228Z,2.67
2018-08-24T09:04:58.056Z,3.33
2018-08-24T09:07:25.897Z,2.20
2018-08-24T09:09:53.727Z,2.47
2018-08-24T09:12:21.601Z,2.30
2018-08-24T09:14:49.427Z,3.37
2018-08-24T09:17:22.378Z,4.03
2018-08-24T09:19:55.309Z,3.03
2018-08-24T09:22:28.259Z,5.07
2018-08-24T09:25:08.172Z,4.30
2018-08-24T09:27:43.137Z,4.97
2018-08-24T09:30:10.964Z,2.50
2018-08-24T09:32:38.922Z,7.13
2018-08-24T09:35:06.735Z,2.30
2018-08-24T09:37:36.654Z,1.83
2018-08-24T09:40:05.006Z,4.03
2018-08-24T09:42:32.849Z,2.60
2018-08-24T09:45:00.695Z,3.23
2018-08-24T09:47:33.716Z,3.63
2018-08-24T09:50:06.907Z,3.10
2018-08-24T09:52:34.748Z,2.10
2018-08-24T09:55:02.606Z,2.80
2018-08-24T09:57:30.445Z,1.60
2018-08-24T09:59:58.819Z,2.77
2018-08-24T10:02:30.835Z,3.60
2018-08-24T10:05:03.919Z,1.80
2018-08-24T10:07:32.671Z,2.93
2018-08-24T10:10:01.110Z,1.87
2018-08-24T10:12:33.138Z,4.27
2018-08-24T10:15:01.060Z,1.70
2018-08-24T10:17:29.068Z,2.67
2018-08-24T10:19:56.902Z,0.70
2018-08-24T10:22:24.733Z,1.00
2018-08-24T10:24:52.555Z,1.43
2018-08-24T10:27:20.386Z,1.30
2018-08-24T10:29:48.321Z,4.17
2018-08-24T10:32:16.161Z,5.90
2018-08-24T10:34:43.988Z,2.10
2018-08-24T10:37:11.815Z,1.43
2018-08-24T10:39:39.639Z,2.43
2018-08-24T10:42:07.470Z,2.03
2018-08-24T10:44:35.296Z,0.80
2018-08-24T10:47:03.139Z,0.87
2018-08-24T10:49:31.044Z,0.60
2018-08-24T10:51:58.851Z,1.50
2018-08-24T10:54:26.719Z,2.03
2018-08-24T10:56:54.563Z,0.80
2018-08-24T10:59:22.394Z,1.23
2018-08-24T11:01:50.239Z,0.80
2018-08-24T11:04:18.242Z,1.90
2018-08-24T11:06:46.074Z,1.07
2018-08-24T11:09:13.911Z,1.33
2018-08-24T11:11:41.743Z,1.60
2018-08-24T11:14:10.036Z,5.50
2018-08-24T11:16:37.914Z,0.63
2018-08-24T11:19:05.751Z,1.33
2018-08-24T11:21:33.579Z,2.67
2018-08-24T11:24:01.406Z,7.27
2018-08-24T11:26:29.228Z,2.13
2018-08-24T11:28:57.067Z,1.93
2018-08-24T11:31:24.924Z,0.80
2018-08-24T11:33:52.775Z,0.80
2018-08-24T11:36:20.751Z,1.50
2018-08-24T11:38:48.562Z,1.80
2018-08-24T11:41:16.407Z,1.97
2018-08-24T11:43:44.222Z,3.03
2018-08-24T11:46:12.051Z,1.67
2018-08-24T11:48:40.060Z,3.60
2018-08-24T11:51:08.006Z,3.13
2018-08-24T11:53:35.863Z,1.87
2018-08-24T11:56:03.743Z,1.33
2018-08-24T11:58:31.595Z,2.97
2018-08-24T12:00:59.461Z,2.03
2018-08-24T12:03:27.527Z,1.57
2018-08-24T12:05:55.442Z,4.03
2018-08-24T12:08:23.404Z,1.23
2018-08-24T12:10:51.237Z,2.30
2018-08-24T12:13:19.056Z,1.03
2018-08-24T12:15:46.879Z,1.80
2018-08-24T12:18:14.853Z,1.57
2018-08-24T12:20:42.691Z,1.20
2018-08-24T12:23:10.548Z,1.17
2018-08-24T12:25:38.397Z,1.63
2018-08-24T12:28:06.262Z,0.80
2018-08-24T12:30:34.222Z,3.50
2018-08-24T12:33:02.050Z,1.00
2018-08-24T12:35:29.882Z,1.80
2018-08-24T12:37:57.728Z,0.90
2018-08-24T12:40:25.607Z,1.40
2018-08-24T12:42:53.482Z,1.30
2018-08-24T12:45:21.310Z,1.57
2018-08-24T12:47:49.136Z,0.70
2018-08-24T12:50:17.092Z,0.77
2018-08-24T12:52:44.935Z,0.60
2018-08-24T12:55:12.791Z,0.93
2018-08-24T12:57:40.621Z,0.63
2018-08-24T13:00:08.511Z,0.77
2018-08-24T13:02:36.355Z,1.60
2018-08-24T13:05:04.292Z,1.03
2018-08-24T13:07:32.140Z,0.90
2018-08-24T13:09:59.973Z,0.70
2018-08-24T13:12:28.286Z,0.90
2018-08-24T13:14:56.140Z,1.20
2018-08-24T13:17:23.991Z,0.83
2018-08-24T13:19:51.837Z,0.87
2018-08-24T13:22:19.703Z,0.53
2018-08-24T13:24:47.813Z,0.90
2018-08-24T13:27:15.711Z,0.80
2018-08-24T13:29:43.538Z,1.30
2018-08-24T13:32:11.419Z,0.80
2018-08-24T13:34:39.294Z,3.07
2018-08-24T13:37:07.189Z,1.73
2018-08-24T13:39:35.251Z,1.13
2018-08-24T13:42:03.847Z,1.10
2018-08-24T13:44:31.828Z,1.97
2018-08-24T13:46:59.661Z,1.20
2018-08-24T13:49:27.547Z,1.40
2018-08-24T13:51:55.432Z,5.67
2018-08-24T13:54:23.285Z,7.50
2018-08-24T13:56:51.219Z,1.43
2018-08-24T13:59:19.045Z,1.40
2018-08-24T14:01:46.944Z,1.40
2018-08-24T14:04:14.785Z,1.43
2018-08-24T14:06:42.636Z,1.60
2018-08-24T14:09:11.774Z,2.10
2018-08-24T14:11:39.698Z,1.90
2018-08-24T14:14:07.546Z,1.50
2018-08-24T14:16:36.228Z,1.67
2018-08-24T14:19:04.076Z,3.40
2018-08-24T14:21:31.948Z,1.20
2018-08-24T14:23:59.893Z,1.17
2018-08-24T14:26:27.787Z,2.20
2018-08-24T14:28:56.045Z,1.60
2018-08-24T14:31:23.919Z,1.70
2018-08-24T14:33:51.763Z,1.43
2018-08-24T14:36:19.599Z,1.20
2018-08-24T14:38:47.450Z,1.67
2018-08-24T14:41:15.330Z,1.10
2018-08-24T14:43:43.206Z,1.30
2018-08-24T14:46:11.063Z,1.30
2018-08-24T14:48:39.441Z,1.97
2018-08-24T14:51:07.302Z,1.00
2018-08-24T14:53:35.158Z,1.50
2018-08-24T14:56:02.999Z,1.90
2018-08-24T14:58:30.849Z,1.87
2018-08-24T15:00:58.900Z,1.30
2018-08-24T15:03:26.736Z,2.03
2018-08-24T15:05:54.759Z,3.47
2018-08-24T15:08:22.595Z,1.10
2018-08-24T15:10:50.450Z,1.27
2018-08-24T15:13:18.294Z,1.33
2018-08-24T15:15:46.405Z,1.33
2018-08-24T15:18:14.343Z,1.97
2018-08-24T15:20:42.348Z,1.07
2018-08-24T15:23:10.314Z,2.90
2018-08-24T15:25:38.338Z,1.83
2018-08-24T15:28:06.215Z,0.97
2018-08-24T15:30:34.098Z,0.90
2018-08-24T15:33:01.918Z,3.40
2018-08-24T15:35:29.795Z,2.07
2018-08-24T15:37:57.721Z,1.30
2018-08-24T15:40:25.590Z,3.57
2018-08-24T15:42:53.416Z,2.00
2018-08-24T15:45:21.610Z,1.20
2018-08-24T15:47:49.454Z,4.60
2018-08-24T15:50:17.549Z,7.20
2018-08-24T15:52:45.627Z,6.20
2018-08-24T15:55:13.486Z,1.93
2018-08-24T15:57:41.466Z,1.67
2018-08-24T16:00:09.329Z,5.00
2018-08-24T16:02:37.302Z,1.80
2018-08-24T16:05:05.226Z,1.70
2018-08-24T16:07:37.681Z,4.73
2018-08-24T16:10:06.235Z,2.13
2018-08-24T16:12:34.078Z,2.03
2018-08-24T16:15:01.990Z,2.07
2018-08-24T16:17:30.012Z,2.37
2018-08-24T16:19:58.227Z,4.50
2018-08-24T16:22:26.058Z,2.87
2018-08-24T16:24:53.979Z,7.70
2018-08-24T16:27:23.362Z,4.47
2018-08-24T16:29:52.076Z,2.67
2018-08-24T16:32:19.936Z,3.33
2018-08-24T16:34:47.803Z,3.87
2018-08-24T16:37:15.635Z,4.30
2018-08-24T16:39:43.525Z,3.17
2018-08-24T16:42:11.546Z,2.10
2018-08-24T16:44:39.671Z,1.73
2018-08-24T16:47:07.740Z,2.13
2018-08-24T16:49:35.635Z,3.57
2018-08-24T16:52:03.602Z,2.73
2018-08-24T16:54:31.549Z,7.33
2018-08-24T16:56:59.420Z,1.97
2018-08-24T16:59:27.255Z,2.30
2018-08-24T17:01:55.100Z,1.43
2018-08-24T17:04:22.932Z,3.00
2018-08-24T17:06:50.786Z,4.10
2018-08-24T17:09:18.627Z,1.73
2018-08-24T17:11:46.480Z,1.47
2018-08-24T17:14:14.338Z,2.70
2018-08-24T17:16:42.167Z,3.07
2018-08-24T17:19:09.999Z,3.30
2018-08-24T17:21:37.853Z,7.67
2018-08-24T17:24:05.774Z,4.03
2018-08-24T17:26:33.819Z,3.00
2018-08-24T17:29:01.704Z,7.57
2018-08-24T17:31:29.564Z,3.77
2018-08-24T17:33:57.451Z,2.93
2018-08-24T17:36:25.299Z,2.70
2018-08-24T17:38:53.140Z,2.77
2018-08-24T17:41:21.140Z,2.40
2018-08-24T17:43:48.991Z,5.13
2018-08-24T17:46:16.832Z,2.60
2018-08-24T17:48:44.737Z,4.33
2018-08-24T17:51:12.570Z,3.00
2018-08-24T17:53:41.406Z,4.20
2018-08-24T17:56:09.297Z,4.77
2018-08-24T17:58:37.170Z,3.40
2018-08-24T18:01:05.293Z,3.00
2018-08-24T18:03:33.315Z,6.40
2018-08-24T18:06:01.157Z,4.17
2018-08-24T18:08:29.047Z,3.40
2018-08-24T18:10:57.000Z,5.73
2018-08-24T18:13:24.833Z,3.47
2018-08-24T18:15:52.660Z,4.30
2018-08-24T18:18:20.667Z,4.67
2018-08-24T18:20:48.616Z,5.00
2018-08-24T18:23:16.502Z,5.03
2018-08-24T18:25:44.404Z,4.17
2018-08-24T18:28:12.266Z,4.90
2018-08-24T18:30:40.116Z,4.57
2018-08-24T18:33:08.155Z,4.27
2018-08-24T18:35:36.073Z,4.63
2018-08-24T18:38:03.942Z,6.90
2018-08-24T18:40:31.787Z,4.90
2018-08-24T18:42:59.622Z,4.57
2018-08-24T18:45:27.467Z,7.80
2018-08-24T18:47:55.334Z,5.10
2018-08-24T18:50:23.170Z,3.63
2018-08-24T18:52:51.239Z,6.37
2018-08-24T18:55:19.218Z,3.40
2018-08-24T18:57:47.104Z,6.37
2018-08-24T19:00:14.951Z,5.43
2018-08-24T19:02:42.791Z,3.87
2018-08-24T19:05:10.711Z,3.53
2018-08-24T19:07:38.864Z,5.07
2018-08-24T19:10:06.826Z,6.47
2018-08-24T19:12:34.662Z,4.40
2018-08-24T19:15:02.707Z,4.00
2018-08-24T19:17:35.664Z,4.93
2018-08-24T19:20:08.755Z,5.37
2018-08-24T19:22:36.584Z,5.93
2018-08-24T19:25:04.489Z,6.63
2018-08-24T19:27:37.443Z,4.77
2018-08-24T19:30:10.533Z,4.60
2018-08-24T19:32:38.633Z,4.90
2018-08-24T19:35:06.497Z,6.37
2018-08-24T19:37:34.910Z,5.13
2018-08-24T19:40:07.857Z,7.00
2018-08-24T19:42:35.695Z,4.27
2018-08-24T19:45:03.539Z,5.63
2018-08-24T19:47:36.573Z,4.67
2018-08-24T19:50:04.460Z,7.20
2018-08-24T19:52:32.284Z,4.97
2018-08-24T19:55:00.152Z,5.33
2018-08-24T19:57:33.220Z,5.93
2018-08-24T20:00:01.081Z,4.63
2018-08-24T20:02:28.934Z,4.63
2018-08-24T20:04:56.772Z,7.30
2018-08-24T20:07:29.813Z,8.83
2018-08-24T20:10:02.959Z,5.80
2018-08-24T20:12:30.791Z,6.87
2018-08-24T20:15:03.814Z,6.00
2018-08-24T20:17:31.744Z,5.07
2018-08-24T20:20:00.300Z,6.47
2018-08-24T20:22:28.460Z,6.23
2018-08-24T20:24:56.279Z,5.20
2018-08-24T20:27:24.116Z,9.13
2018-08-24T20:29:51.969Z,5.97
2018-08-24T20:32:19.802Z,5.27
2018-08-24T20:34:47.632Z,8.63
2018-08-24T20:37:15.467Z,6.33
2018-08-24T20:39:43.306Z,6.27
2018-08-24T20:42:14.218Z,5.33
2018-08-24T20:44:42.043Z,5.37
2018-08-24T20:47:09.889Z,7.90
2018-08-24T20:49:38.045Z,7.40
2018-08-24T20:52:06.003Z,7.20
2018-08-24T20:54:33.857Z,7.63
2018-08-24T20:57:01.855Z,6.07
2018-08-24T20:59:29.751Z,5.87
2018-08-24T21:01:57.582Z,8.60
2018-08-24T21:04:25.407Z,8.10
2018-08-24T21:06:53.244Z,6.53
2018-08-24T21:09:21.063Z,8.93
2018-08-24T21:11:48.901Z,6.70
2018-08-24T21:14:16.816Z,7.23
2018-08-24T21:16:44.674Z,7.40
2018-08-24T21:19:12.550Z,5.80
2018-08-24T21:21:40.376Z,6.17
2018-08-24T21:24:08.638Z,8.13
2018-08-24T21:26:36.459Z,7.93
2018-08-24T21:29:04.351Z,7.70
2018-08-24T21:31:32.211Z,6.80
2018-08-24T21:34:00.041Z,6.07
2018-08-24T21:36:27.866Z,9.10
2018-08-24T21:38:55.696Z,7.13
2018-08-24T21:41:23.528Z,7.23
2018-08-24T21:43:51.360Z,7.07
2018-08-24T21:46:19.795Z,7.00
2018-08-24T21:48:47.663Z,8.10
2018-08-24T21:51:15.506Z,7.47
2018-08-24T21:53:43.335Z,7.40
2018-08-24T21:56:11.153Z,5.13
2018-08-24T21:58:39.016Z,8.03
2018-08-24T22:01:06.916Z,6.27
2018-08-24T22:03:34.734Z,9.57
2018-08-24T22:06:02.564Z,8.30
2018-08-24T22:08:30.394Z,7.37
2018-08-24T22:10:58.227Z,7.20
2018-08-24T22:13:26.067Z,7.43
2018-08-24T22:15:53.888Z,6.50
2018-08-24T22:18:21.794Z,10.43
2018-08-24T22:20:49.623Z,5.70
2018-08-24T22:23:17.463Z,5.77
2018-08-24T22:25:45.292Z,8.00
2018-08-24T22:28:13.117Z,5.47
2018-08-24T22:30:40.936Z,8.93
2018-08-24T22:33:08.782Z,6.00
2018-08-24T22:35:36.659Z,6.73
2018-08-24T22:38:04.735Z,7.17
2018-08-24T22:40:32.567Z,5.47
2018-08-24T22:43:00.419Z,4.07
2018-08-24T22:45:28.258Z,6.90
2018-08-24T22:47:56.123Z,7.00
2018-08-24T22:50:24.003Z,5.20
2018-08-24T22:52:51.875Z,7.07
2018-08-24T22:55:19.709Z,5.13
2018-08-24T22:57:47.519Z,7.67
2018-08-24T23:00:15.414Z,5.47
2018-08-24T23:02:43.281Z,6.47
2018-08-24T23:05:11.118Z,7.03
2018-08-24T23:07:38.953Z,6.93
2018-08-24T23:10:06.811Z,5.60
2018-08-24T23:12:34.631Z,5.60
2018-08-24T23:15:02.475Z,7.30
2018-08-24T23:17:30.292Z,6.10
2018-08-24T23:19:58.131Z,6.13
2018-08-24T23:22:26.009Z,9.73
2018-08-24T23:24:53.835Z,3.73
2018-08-24T23:27:21.668Z,5.30
2018-08-24T23:29:49.497Z,5.90
2018-08-24T23:32:17.317Z,8.07
2018-08-24T23:34:45.136Z,7.23
2018-08-24T23:37:12.974Z,7.37
2018-08-24T23:39:40.785Z,8.13
2018-08-24T23:42:08.615Z,7.53
2018-08-24T23:44:36.534Z,4.97
2018-08-24T23:47:04.423Z,7.03
2018-08-24T23:49:32.274Z,6.33
2018-08-24T23:52:00.163Z,6.07
2018-08-24T23:54:28.043Z,6.40
2018-08-24T23:56:55.879Z,9.73
2018-08-24T23:59:23.915Z,7.77
